Time;durP1;ratioP1;P1;durP2;ratioP2;P2;SDS_P1;SDS_P2;PMS_P1;PMS_P2;Temp;Humidity;BMP_temperature;BMP_pressure;BME280_temperature;BME280_humidity;BME280_pressure;Samples;Min_cycle;Max_cycle;Signal;HPM_P1;HPM_P2
2022/01/25 00:10:25;;;;;;;0.10;0.10;;;3.10;99.90;226.50;231333.00;;;;4994421;28;20708;-73
2022/01/25 00:24:29;;;;;;;0.10;0.10;;;3.10;99.90;226.50;231333.00;;;;4952322;29;20205;-73
2022/01/25 00:27:12;;;;;;;0.10;0.10;;;3.20;99.90;226.50;231333.00;;;;4979649;28;20259;-73
2022/01/25 00:29:57;;;;;;;0.10;0.10;;;3.10;99.90;226.50;231333.00;;;;4994934;28;20232;-73
2022/01/25 00:32:25;;;;;;;0.10;0.10;;;3.10;99.90;226.50;231333.00;;;;4998585;28;20211;-72
2022/01/25 00:34:54;;;;;;;0.10;0.10;;;3.10;99.90;226.50;231333.00;;;;4999095;28;20203;-73
2022/01/25 00:37:22;;;;;;;0.10;0.10;;;3.10;99.90;226.50;231333.00;;;;5004021;28;20267;-73
2022/01/25 00:39:51;;;;;;;0.10;0.10;;;3.10;99.90;226.50;231333.00;;;;5000005;28;20255;-74
2022/01/25 00:42:19;;;;;;;0.10;0.10;;;3.10;99.90;226.50;231333.00;;;;4998633;28;20216;-73
2022/01/25 00:44:49;;;;;;;0.10;0.10;;;3.10;99.90;226.50;231333.00;;;;4996348;28;20212;-73
2022/01/25 00:47:17;;;;;;;0.10;0.10;;;3.20;99.90;226.50;231333.00;;;;4995047;28;20196;-73
2022/01/25 00:49:51;;;;;;;0.10;0.10;;;3.20;99.90;226.50;231333.00;;;;5001697;28;20224;-72
2022/01/25 00:53:53;;;;;;;0.10;0.10;;;3.20;99.90;226.50;231333.00;;;;5001484;28;20752;-73
2022/01/25 00:55:14;;;;;;;0.10;0.10;;;3.20;99.90;226.50;231333.00;;;;4995757;28;20224;-73
2022/01/25 00:57:42;;;;;;;0.10;0.10;;;3.10;99.90;226.50;231333.00;;;;4994713;28;20189;-74
2022/01/25 01:00:13;;;;;;;0.10;0.10;;;3.10;99.90;226.50;231333.00;;;;4991010;28;20227;-73
2022/01/25 01:02:41;;;;;;;0.10;0.10;;;3.10;99.90;226.50;231333.00;;;;4991867;28;20216;-73
2022/01/25 01:05:11;;;;;;;0.10;0.10;;;3.20;99.90;226.50;231333.00;;;;4991667;28;20204;-73
2022/01/25 01:07:42;;;;;;;0.10;0.10;;;3.20;99.90;226.50;231333.00;;;;4991266;28;20201;-74
2022/01/25 01:10:14;;;;;;;0.10;0.10;;;3.30;99.90;226.50;231333.00;;;;4990428;28;20874;-74
2022/01/25 01:13:15;;;;;;;0.10;0.10;;;3.20;99.90;226.50;231333.00;;;;4990690;28;20197;-73
2022/01/25 01:15:50;;;;;;;0.10;0.10;;;3.20;99.90;226.50;231333.00;;;;4988984;28;20197;-73
2022/01/25 01:29:32;;;;;;;0.10;0.10;;;3.10;99.90;226.50;231333.00;;;;4990667;28;20227;-74
2022/01/25 01:32:12;;;;;;;0.10;0.10;;;3.20;99.90;226.50;231333.00;;;;4991267;28;20196;-73
2022/01/25 01:38:01;;;;;;;0.10;0.10;;;3.10;99.90;226.50;231333.00;;;;4976727;28;20205;-73
2022/01/25 01:43:31;;;;;;;0.10;0.10;;;3.20;99.90;226.50;231333.00;;;;5005565;28;20251;-73
2022/01/25 01:46:19;;;;;;;0.10;0.10;;;3.10;99.90;226.50;231333.00;;;;4990067;28;20272;-73
2022/01/25 01:48:54;;;;;;;0.10;0.10;;;3.10;99.90;226.50;231333.00;;;;4990922;28;20224;-72
2022/01/25 01:51:28;;;;;;;0.10;0.10;;;3.10;99.90;226.50;231333.00;;;;4992170;28;20735;-75
2022/01/25 01:54:00;;;;;;;0.10;0.10;;;3.10;99.90;226.50;231333.00;;;;4991435;28;20191;-75
2022/01/25 01:56:29;;;;;;;0.10;0.10;;;3.10;99.90;226.50;231333.00;;;;5006240;28;20940;-75
2022/01/25 01:59:04;;;;;;;0.10;0.10;;;3.10;99.90;226.50;231333.00;;;;5006035;28;20740;-73
2022/01/25 02:01:33;;;;;;;0.10;0.10;;;3.10;99.90;226.50;231333.00;;;;4990139;28;20262;-73
2022/01/25 02:04:06;;;;;;;0.10;0.10;;;3.10;99.90;226.50;231333.00;;;;4991147;28;20224;-72
2022/01/25 02:06:34;;;;;;;0.10;0.10;;;3.10;99.90;226.50;231333.00;;;;4990612;28;20661;-72
2022/01/25 02:09:04;;;;;;;0.10;0.10;;;3.00;99.90;226.50;231333.00;;;;4990757;28;20255;-72
2022/01/25 02:11:33;;;;;;;0.10;0.10;;;2.90;99.90;226.50;231333.00;;;;4990989;28;20195;-73
2022/01/25 02:14:06;;;;;;;0.10;0.10;;;3.00;99.90;226.50;231333.00;;;;4989024;28;20200;-72
2022/01/25 02:16:43;;;;;;;0.10;0.10;;;3.00;99.90;226.50;231333.00;;;;4990066;28;20184;-73
2022/01/25 02:24:48;;;;;;;0.10;0.10;;;3.00;99.90;226.50;231333.00;;;;5005589;28;20211;-73
2022/01/25 02:27:17;;;;;;;0.10;0.10;;;3.00;99.90;226.50;231333.00;;;;4990407;28;20640;-72
2022/01/25 02:29:45;;;;;;;0.10;0.10;;;3.00;99.90;226.50;231333.00;;;;4990279;28;20219;-71
2022/01/25 02:32:14;;;;;;;0.10;0.10;;;3.10;99.90;226.50;231333.00;;;;4993111;28;20200;-71
2022/01/25 02:34:43;;;;;;;0.10;0.10;;;3.10;99.90;226.50;231333.00;;;;5009195;28;20199;-72
2022/01/25 02:37:16;;;;;;;0.10;0.10;;;3.10;99.90;226.50;231333.00;;;;4992714;28;20200;-72
2022/01/25 02:39:46;;;;;;;0.10;0.10;;;3.00;99.90;226.50;231333.00;;;;4994717;28;20239;-72
2022/01/25 02:42:17;;;;;;;0.10;0.10;;;3.00;99.90;226.50;231333.00;;;;4993535;28;20227;-72
2022/01/25 02:44:46;;;;;;;0.10;0.10;;;3.00;99.90;226.50;231333.00;;;;4993198;28;20268;-72
2022/01/25 02:50:00;;;;;;;0.10;0.10;;;3.00;99.90;226.50;231333.00;;;;4992834;28;20772;-73
2022/01/25 02:52:31;;;;;;;0.10;0.10;;;3.00;99.90;226.50;231333.00;;;;4993102;28;20200;-72
2022/01/25 02:55:00;;;;;;;0.10;0.10;;;3.00;99.90;226.50;231333.00;;;;4992116;28;20674;-72
2022/01/25 02:57:28;;;;;;;0.10;0.10;;;3.00;99.90;226.50;231333.00;;;;4993241;28;20549;-72
2022/01/25 02:59:56;;;;;;;0.10;0.10;;;3.00;99.90;226.50;231333.00;;;;4993112;28;20709;-72
2022/01/25 03:02:24;;;;;;;0.10;0.10;;;3.00;99.90;226.50;231333.00;;;;4992529;28;20228;-73
2022/01/25 03:04:52;;;;;;;0.10;0.10;;;3.00;99.90;226.50;231333.00;;;;4992851;28;20203;-74
2022/01/25 03:07:20;;;;;;;0.10;0.10;;;3.00;99.90;226.50;231333.00;;;;4992425;28;20196;-71
2022/01/25 03:09:52;;;;;;;0.10;0.10;;;3.00;99.90;226.50;231333.00;;;;4993223;28;20290;-72
2022/01/25 03:12:31;;;;;;;0.10;0.10;;;2.90;99.90;226.50;231333.00;;;;4992635;28;20208;-72
2022/01/25 03:15:21;;;;;;;0.10;0.10;;;3.00;99.90;226.50;231333.00;;;;4992468;28;20196;-73
2022/01/25 03:17:54;;;;;;;0.10;0.10;;;3.00;99.90;226.50;231333.00;;;;4992120;28;20204;-73
2022/01/25 03:20:35;;;;;;;0.10;0.10;;;3.00;99.90;226.50;231333.00;;;;4992401;28;20216;-73
2022/01/25 03:23:17;;;;;;;0.10;0.10;;;2.90;99.90;226.50;231333.00;;;;4992508;28;20223;-73
2022/01/25 03:25:48;;;;;;;0.10;0.10;;;2.90;99.90;226.50;231333.00;;;;4992057;28;20192;-73
2022/01/25 03:28:17;;;;;;;0.10;0.10;;;2.90;99.90;226.50;231333.00;;;;4992426;28;20258;-73
2022/01/25 03:30:45;;;;;;;0.10;0.10;;;2.90;99.90;226.50;231333.00;;;;4993046;28;20677;-73
2022/01/25 03:33:14;;;;;;;0.10;0.10;;;2.90;99.90;226.50;231333.00;;;;4992748;28;20204;-73
2022/01/25 03:35:46;;;;;;;0.10;0.10;;;2.80;99.90;226.50;231333.00;;;;4992403;28;20556;-72
2022/01/25 03:38:17;;;;;;;0.10;0.10;;;2.80;99.90;226.50;231333.00;;;;4992663;28;20224;-72
2022/01/25 03:40:47;;;;;;;0.10;0.10;;;2.90;99.90;226.50;231333.00;;;;4991978;28;20196;-73
2022/01/25 03:43:18;;;;;;;0.10;0.10;;;2.90;99.90;226.50;231333.00;;;;4991901;28;20283;-73
2022/01/25 03:45:58;;;;;;;0.10;0.10;;;2.90;99.90;226.50;231333.00;;;;5006861;28;20254;-73
2022/01/25 03:51:12;;;;;;;0.10;0.10;;;2.90;99.90;226.50;231333.00;;;;4991450;28;20736;-73
2022/01/25 03:53:40;;;;;;;0.10;0.10;;;2.90;99.90;226.50;231333.00;;;;5007149;28;20300;-76
2022/01/25 03:56:12;;;;;;;0.10;0.10;;;2.90;99.90;226.50;231333.00;;;;4990623;28;20688;-73
2022/01/25 03:58:42;;;;;;;0.10;0.10;;;3.10;99.90;226.50;231333.00;;;;4992307;28;20224;-73
2022/01/25 04:01:13;;;;;;;0.10;0.10;;;3.00;99.90;226.50;231333.00;;;;4991130;28;20576;-73
2022/01/25 04:03:51;;;;;;;0.10;0.10;;;2.90;99.90;226.50;231333.00;;;;4992051;28;20222;-74
2022/01/25 04:06:25;;;;;;;0.10;0.10;;;2.90;99.90;226.50;231333.00;;;;4991545;28;20224;-73
2022/01/25 04:08:54;;;;;;;0.10;0.10;;;2.90;99.90;226.50;231333.00;;;;4992166;28;20211;-73
2022/01/25 04:11:26;;;;;;;0.10;0.10;;;2.90;99.90;226.50;231333.00;;;;4992432;28;20325;-73
2022/01/25 04:13:58;;;;;;;0.10;0.10;;;2.90;99.90;226.50;231333.00;;;;4992291;28;20740;-73
2022/01/25 04:16:35;;;;;;;0.10;0.10;;;2.80;99.90;226.50;231333.00;;;;4997997;28;20204;-73
2022/01/25 04:19:09;;;;;;;0.10;0.10;;;2.80;99.90;226.50;231333.00;;;;5001027;28;20216;-73
2022/01/25 04:25:04;;;;;;;0.10;0.10;;;2.80;99.90;226.50;231333.00;;;;4991770;28;20216;-74
2022/01/25 04:27:36;;;;;;;0.10;0.10;;;2.80;99.90;226.50;231333.00;;;;4994191;28;20211;-73
2022/01/25 04:30:09;;;;;;;0.10;0.10;;;2.80;99.90;226.50;231333.00;;;;4995658;28;20282;-73
2022/01/25 04:32:47;;;;;;;0.10;0.10;;;2.80;99.90;226.50;231333.00;;;;4994215;28;20193;-73
2022/01/25 04:35:42;;;;;;;0.10;0.10;;;2.70;99.90;226.50;231333.00;;;;4990016;28;20227;-73
2022/01/25 04:49:29;;;;;;;0.10;0.10;;;2.80;99.90;226.50;231333.00;;;;4990857;28;20587;-73
2022/01/25 04:52:03;;;;;;;0.10;0.10;;;2.80;99.90;226.50;231333.00;;;;4991155;28;20234;-73
2022/01/25 04:54:50;;;;;;;0.10;0.10;;;2.70;99.90;226.50;231333.00;;;;4990179;28;20214;-73
2022/01/25 04:57:34;;;;;;;0.10;0.10;;;2.80;99.90;226.50;231333.00;;;;4989675;28;20690;-73
2022/01/25 05:00:15;;;;;;;0.10;0.10;;;2.80;99.90;226.50;231333.00;;;;4989807;28;20224;-73
2022/01/25 05:02:51;;;;;;;0.10;0.10;;;2.90;99.90;226.50;231333.00;;;;4990033;28;20204;-75
2022/01/25 05:05:29;;;;;;;0.10;0.10;;;2.70;99.90;226.50;231333.00;;;;4990756;28;20231;-75
2022/01/25 05:08:05;;;;;;;0.10;0.10;;;2.80;99.90;226.50;231333.00;;;;4990822;28;20207;-73
2022/01/25 05:10:47;;;;;;;0.10;0.10;;;2.80;99.90;226.50;231333.00;;;;4989838;28;20219;-73
2022/01/25 05:13:36;;;;;;;0.10;0.10;;;2.70;99.90;226.50;231333.00;;;;4989142;28;20251;-74
2022/01/25 05:16:16;;;;;;;0.10;0.10;;;2.70;99.90;226.50;231333.00;;;;4990094;28;20259;-73
2022/01/25 05:18:49;;;;;;;0.10;0.10;;;2.60;99.90;226.50;231333.00;;;;4990788;28;20248;-74
2022/01/25 05:24:08;;;;;;;0.10;0.10;;;2.70;99.90;226.50;231333.00;;;;4990359;28;20253;-73
2022/01/25 05:26:38;;;;;;;0.10;0.10;;;2.70;99.90;226.50;231333.00;;;;4989536;28;20321;-74
2022/01/25 05:29:09;;;;;;;0.10;0.10;;;2.70;99.90;226.50;231333.00;;;;4990043;28;20910;-74
2022/01/25 05:31:41;;;;;;;0.10;0.10;;;2.70;99.90;226.50;231333.00;;;;4989644;28;20674;-74
2022/01/25 05:34:11;;;;;;;0.10;0.10;;;2.70;99.90;226.50;231333.00;;;;4989287;28;20304;-73
2022/01/25 05:36:43;;;;;;;0.10;0.10;;;2.60;99.90;226.50;231333.00;;;;4989916;28;20241;-73
2022/01/25 05:39:17;;;;;;;0.10;0.10;;;2.60;99.90;226.50;231333.00;;;;4990694;28;20224;-73
2022/01/25 05:41:55;;;;;;;0.10;0.10;;;2.70;99.90;226.50;231333.00;;;;4990843;28;20199;-73
2022/01/25 05:44:41;;;;;;;0.10;0.10;;;2.70;99.90;226.50;231333.00;;;;4991293;28;20220;-73
2022/01/25 05:47:14;;;;;;;0.10;0.10;;;2.70;99.90;226.50;231333.00;;;;4989400;28;20204;-74
2022/01/25 05:49:50;;;;;;;0.10;0.10;;;2.70;99.90;226.50;231333.00;;;;4991522;28;20211;-73
2022/01/25 05:52:20;;;;;;;0.10;0.10;;;2.70;99.90;226.50;231333.00;;;;4991354;28;20627;-73
2022/01/25 05:54:50;;;;;;;0.10;0.10;;;2.70;99.90;226.50;231333.00;;;;4990358;28;20207;-73
2022/01/25 05:57:21;;;;;;;0.10;0.10;;;2.70;99.90;226.50;231333.00;;;;4990241;28;20204;-73
2022/01/25 05:59:53;;;;;;;0.10;0.10;;;2.60;99.90;226.50;231333.00;;;;4990502;28;20253;-76
2022/01/25 06:02:27;;;;;;;0.10;0.10;;;2.70;99.90;226.50;231333.00;;;;4987764;28;20720;-74
2022/01/25 06:04:58;;;;;;;0.10;0.10;;;2.70;99.90;226.50;231333.00;;;;4990282;28;20285;-73
2022/01/25 06:07:28;;;;;;;0.10;0.10;;;2.70;99.90;226.50;231333.00;;;;4994772;28;20196;-74
2022/01/25 06:09:58;;;;;;;0.10;0.10;;;2.70;99.90;226.50;231333.00;;;;4993539;28;20779;-73
2022/01/25 06:12:29;;;;;;;0.10;0.10;;;2.70;99.90;226.50;231333.00;;;;4994364;28;20192;-73
2022/01/25 06:14:57;;;;;;;0.10;0.10;;;2.70;99.90;226.50;231333.00;;;;4993851;28;20203;-75
2022/01/25 06:17:26;;;;;;;0.10;0.10;;;2.70;99.90;226.50;231333.00;;;;4992667;28;20208;-74
2022/01/25 06:19:56;;;;;;;0.10;0.10;;;2.80;99.90;226.50;231333.00;;;;4992567;28;20216;-74
2022/01/25 06:22:24;;;;;;;0.10;0.10;;;2.80;99.90;226.50;231333.00;;;;4993805;28;20653;-74
2022/01/25 06:24:53;;;;;;;0.10;0.10;;;2.70;99.90;226.50;231333.00;;;;4993885;28;20231;-74
2022/01/25 06:27:21;;;;;;;0.10;0.10;;;2.70;99.90;226.50;231333.00;;;;4994284;28;20204;-74
2022/01/25 06:29:51;;;;;;;0.10;0.10;;;2.60;99.90;226.50;231333.00;;;;4993357;28;20220;-73
2022/01/25 06:32:20;;;;;;;0.10;0.10;;;2.60;99.90;226.50;231333.00;;;;4993916;28;20219;-74
2022/01/25 06:34:49;;;;;;;0.10;0.10;;;2.60;99.90;226.50;231333.00;;;;4994203;28;20193;-74
2022/01/25 06:37:17;;;;;;;0.10;0.10;;;2.70;99.90;226.50;231333.00;;;;4992977;28;20569;-74
2022/01/25 06:39:46;;;;;;;0.10;0.10;;;2.70;99.90;226.50;231333.00;;;;5001331;28;20220;-74
2022/01/25 06:42:14;;;;;;;0.10;0.10;;;2.80;99.90;226.50;231333.00;;;;4993011;28;20666;-74
2022/01/25 06:44:42;;;;;;;0.10;0.10;;;2.90;99.90;226.50;231333.00;;;;4994183;28;20220;-73
2022/01/25 06:47:10;;;;;;;0.10;0.10;;;2.90;99.90;226.50;231333.00;;;;4993833;28;20513;-74
2022/01/25 06:49:38;;;;;;;0.10;0.10;;;2.70;99.90;226.50;231333.00;;;;4993832;28;20752;-74
2022/01/25 06:52:11;;;;;;;0.10;0.10;;;2.60;99.90;226.50;231333.00;;;;4991472;28;20283;-74
2022/01/25 06:54:40;;;;;;;0.10;0.10;;;2.50;99.90;226.50;231333.00;;;;4994164;28;20215;-74
2022/01/25 06:57:09;;;;;;;0.10;0.10;;;2.50;99.90;226.50;231333.00;;;;4993830;28;20355;-73
2022/01/25 06:59:37;;;;;;;0.10;0.10;;;2.50;99.90;226.50;231333.00;;;;4993613;28;20223;-74
2022/01/25 07:02:08;;;;;;;0.10;0.10;;;2.60;99.90;226.50;231333.00;;;;4992940;28;20201;-74
2022/01/25 07:04:37;;;;;;;0.10;0.10;;;2.60;99.90;226.50;231333.00;;;;4993430;28;20212;-74
2022/01/25 07:07:05;;;;;;;0.10;0.10;;;2.50;99.90;226.50;231333.00;;;;4992801;28;20681;-74
2022/01/25 07:09:36;;;;;;;0.10;0.10;;;2.50;99.90;226.50;231333.00;;;;4993380;28;20764;-74
2022/01/25 07:12:05;;;;;;;0.10;0.10;;;2.50;99.90;226.50;231333.00;;;;4993426;28;20670;-74
2022/01/25 07:14:34;;;;;;;0.10;0.10;;;2.60;99.90;226.50;231333.00;;;;4992128;28;20200;-74
2022/01/25 07:17:02;;;;;;;0.10;0.10;;;2.60;99.90;226.50;231333.00;;;;4989513;28;20208;-74
2022/01/25 07:19:30;;;;;;;0.10;0.10;;;2.60;99.90;226.50;231333.00;;;;4992701;28;20245;-74
2022/01/25 07:21:58;;;;;;;0.10;0.10;;;2.60;99.90;226.50;231333.00;;;;4992988;28;20708;-74
2022/01/25 07:24:26;;;;;;;0.10;0.10;;;2.60;99.90;226.50;231333.00;;;;4989145;28;20624;-74
2022/01/25 07:26:55;;;;;;;0.10;0.10;;;2.60;99.90;226.50;231333.00;;;;4991729;28;20215;-74
2022/01/25 07:29:27;;;;;;;0.10;0.10;;;2.60;99.90;226.50;231333.00;;;;4991519;28;20320;-74
2022/01/25 07:31:56;;;;;;;0.10;0.10;;;2.70;99.90;226.50;231333.00;;;;4992382;28;20212;-74
2022/01/25 07:34:26;;;;;;;0.10;0.10;;;2.70;99.90;226.50;231333.00;;;;4991547;28;20255;-74
2022/01/25 07:36:55;;;;;;;0.10;0.10;;;2.70;99.90;226.50;231333.00;;;;4989570;28;20208;-74
2022/01/25 07:39:26;;;;;;;0.10;0.10;;;2.80;99.90;226.50;231333.00;;;;4998268;28;20236;-74
2022/01/25 07:42:05;;;;;;;0.10;0.10;;;2.80;99.90;226.50;231333.00;;;;4991648;28;20215;-74
2022/01/25 07:44:44;;;;;;;0.10;0.10;;;2.90;99.90;226.50;231333.00;;;;5007110;28;20224;-73
2022/01/25 07:47:13;;;;;;;0.10;0.10;;;2.90;99.90;226.50;231333.00;;;;4995464;28;20207;-73
2022/01/25 07:49:51;;;;;;;0.10;0.10;;;2.90;99.90;226.50;231333.00;;;;4997422;28;20216;-74
2022/01/25 07:52:22;;;;;;;0.10;0.10;;;2.80;99.90;226.50;231333.00;;;;4999765;28;20200;-74
2022/01/25 07:54:50;;;;;;;0.10;0.10;;;2.80;99.90;226.50;231333.00;;;;5006090;28;20220;-74
2022/01/25 07:57:20;;;;;;;0.10;0.10;;;2.90;99.90;226.50;231333.00;;;;5008606;28;20207;-74
2022/01/25 07:59:48;;;;;;;0.10;0.10;;;2.90;99.90;226.50;231333.00;;;;5002129;28;20208;-74
2022/01/25 08:02:19;;;;;;;0.10;0.10;;;2.90;99.90;226.50;231333.00;;;;4992572;28;20262;-74
2022/01/25 08:05:14;;;;;;;0.10;0.10;;;3.00;99.90;226.50;231333.00;;;;4993172;28;20242;-74
2022/01/25 08:08:01;;;;;;;0.10;0.10;;;3.00;99.90;226.50;231333.00;;;;4969158;28;20204;-74
2022/01/25 08:10:35;;;;;;;0.10;0.10;;;3.10;99.90;226.50;231333.00;;;;5010065;28;20200;-73
2022/01/25 08:13:07;;;;;;;0.10;0.10;;;3.10;99.90;226.50;231333.00;;;;5001363;28;20196;-74
2022/01/25 08:16:03;;;;;;;0.10;0.10;;;3.20;99.90;226.50;231333.00;;;;4989559;28;20282;-74
2022/01/25 08:18:50;;;;;;;0.10;0.10;;;3.10;99.90;226.50;231333.00;;;;4986413;28;20228;-74
2022/01/25 08:21:32;;;;;;;0.10;0.10;;;3.00;99.90;226.50;231333.00;;;;4991898;28;20581;-74
2022/01/25 08:24:21;;;;;;;0.10;0.10;;;3.10;99.90;226.50;231333.00;;;;4990502;28;20227;-74
2022/01/25 08:27:04;;;;;;;0.10;0.10;;;3.00;99.90;226.50;231333.00;;;;4990623;28;21598;-74
2022/01/25 08:29:58;;;;;;;0.10;0.10;;;3.10;99.90;226.50;231333.00;;;;4931885;29;20246;-75
2022/01/25 08:32:29;;;;;;;0.10;0.10;;;3.10;99.90;226.50;231333.00;;;;4992766;28;20203;-74
2022/01/25 08:35:11;;;;;;;0.10;0.10;;;3.20;99.90;226.50;231333.00;;;;4977381;28;20283;-74
2022/01/25 08:37:50;;;;;;;0.10;0.10;;;3.20;99.90;226.50;231333.00;;;;4994480;28;20212;-74
2022/01/25 08:40:33;;;;;;;0.10;0.10;;;3.20;99.90;226.50;231333.00;;;;4992487;28;20259;-73
2022/01/25 08:43:06;;;;;;;0.10;0.10;;;3.30;99.90;226.50;231333.00;;;;4995177;28;20230;-73
2022/01/25 08:45:42;;;;;;;0.10;0.10;;;3.30;99.90;226.50;231333.00;;;;4995101;28;20212;-73
2022/01/25 08:48:16;;;;;;;0.10;0.10;;;3.20;99.90;226.50;231333.00;;;;4993455;28;20207;-73
2022/01/25 08:51:01;;;;;;;0.10;0.10;;;3.10;99.90;226.50;231333.00;;;;4977323;28;20734;-74
2022/01/25 08:53:59;;;;;;;0.10;0.10;;;3.10;99.90;226.50;231333.00;;;;4930270;29;20213;-74
2022/01/25 08:56:30;;;;;;;0.10;0.10;;;3.00;99.90;226.50;231333.00;;;;4929745;29;20206;-74
2022/01/25 08:59:15;;;;;;;0.10;0.10;;;3.00;99.90;226.50;231333.00;;;;4891024;29;20237;-73
2022/01/25 09:01:44;;;;;;;0.10;0.10;;;3.10;99.90;226.50;231333.00;;;;4928618;29;20206;-74
2022/01/25 09:04:13;;;;;;;0.10;0.10;;;3.10;99.90;226.50;231333.00;;;;4925755;29;20289;-74
2022/01/25 09:06:41;;;;;;;0.10;0.10;;;3.20;99.90;226.50;231333.00;;;;4925021;29;20258;-74
2022/01/25 09:09:11;;;;;;;0.10;0.10;;;3.20;99.90;226.50;231333.00;;;;4929782;29;20739;-73
2022/01/25 09:11:42;;;;;;;0.10;0.10;;;3.10;99.90;226.50;231333.00;;;;4930527;29;20206;-74
2022/01/25 09:14:12;;;;;;;0.10;0.10;;;3.10;99.90;226.50;231333.00;;;;4930073;29;20202;-72
2022/01/25 09:16:41;;;;;;;0.10;0.10;;;3.20;99.90;226.50;231333.00;;;;4930111;29;20214;-72
2022/01/25 09:19:11;;;;;;;0.10;0.10;;;3.10;99.90;226.50;231333.00;;;;4929874;29;20294;-72
2022/01/25 09:21:39;;;;;;;0.10;0.10;;;3.10;99.90;226.50;231333.00;;;;4929994;29;20233;-72
2022/01/25 09:24:09;;;;;;;0.10;0.10;;;3.10;99.90;226.50;231333.00;;;;4929710;29;20285;-72
2022/01/25 09:26:38;;;;;;;0.10;0.10;;;3.10;99.90;226.50;231333.00;;;;4929930;29;20261;-72
2022/01/25 09:29:06;;;;;;;0.10;0.10;;;3.10;99.90;226.50;231333.00;;;;4979613;28;20721;-72
2022/01/25 09:31:34;;;;;;;0.10;0.10;;;3.00;99.90;226.50;231333.00;;;;4989656;28;20558;-74
2022/01/25 09:34:02;;;;;;;0.10;0.10;;;3.20;99.90;226.50;231333.00;;;;4989583;28;20219;-72
2022/01/25 09:36:33;;;;;;;0.10;0.10;;;3.10;99.90;226.50;231333.00;;;;4989199;28;20200;-72
2022/01/25 09:39:01;;;;;;;0.10;0.10;;;3.10;99.90;226.50;231333.00;;;;4988446;28;20220;-75
2022/01/25 09:41:29;;;;;;;0.10;0.10;;;3.10;99.90;226.50;231333.00;;;;4990445;28;20193;-72
2022/01/25 09:43:57;;;;;;;0.10;0.10;;;2.90;99.90;226.50;231333.00;;;;4988545;28;20224;-72
2022/01/25 09:46:26;;;;;;;0.10;0.10;;;2.90;99.90;226.50;231333.00;;;;4989705;28;20219;-72
2022/01/25 09:48:54;;;;;;;0.10;0.10;;;2.80;99.90;226.50;231333.00;;;;4989725;28;20631;-72
2022/01/25 09:51:25;;;;;;;0.10;0.10;;;2.90;99.90;226.50;231333.00;;;;4990077;28;20279;-72
2022/01/25 09:53:54;;;;;;;0.10;0.10;;;3.00;99.90;226.50;231333.00;;;;4990062;28;20254;-72
2022/01/25 09:56:22;;;;;;;0.10;0.10;;;3.10;99.90;226.50;231333.00;;;;4989664;28;20205;-72
2022/01/25 09:58:51;;;;;;;0.10;0.10;;;3.20;99.90;226.50;231333.00;;;;4990330;28;20216;-72
2022/01/25 10:01:27;;;;;;;0.10;0.10;;;3.30;99.90;226.50;231333.00;;;;4990104;28;20204;-72
2022/01/25 10:03:55;;;;;;;0.10;0.10;;;3.40;99.90;226.50;231333.00;;;;4989622;28;20200;-71
2022/01/25 10:06:25;;;;;;;0.10;0.10;;;3.50;99.90;226.50;231333.00;;;;4989828;28;20278;-71
2022/01/25 10:08:54;;;;;;;0.10;0.10;;;3.50;99.90;226.50;231333.00;;;;4989748;28;20232;-72
2022/01/25 10:11:23;;;;;;;0.10;0.10;;;3.50;99.90;226.50;231333.00;;;;4989090;28;20192;-72
2022/01/25 10:13:57;;;;;;;0.10;0.10;;;3.60;99.90;226.50;231333.00;;;;4989327;28;20286;-72
2022/01/25 10:16:33;;;;;;;0.10;0.10;;;3.60;99.90;226.50;231333.00;;;;4987122;28;20255;-72
2022/01/25 10:19:05;;;;;;;0.10;0.10;;;3.50;99.90;226.50;231333.00;;;;4988593;28;20212;-72
2022/01/25 10:21:36;;;;;;;0.10;0.10;;;3.40;99.90;226.50;231333.00;;;;4990134;28;20266;-72
2022/01/25 10:24:10;;;;;;;0.10;0.10;;;3.50;99.90;226.50;231333.00;;;;4989489;28;20262;-72
2022/01/25 10:26:50;;;;;;;0.10;0.10;;;3.40;99.90;226.50;231333.00;;;;4989433;28;20227;-72
2022/01/25 10:29:21;;;;;;;0.10;0.10;;;3.40;99.90;226.50;231333.00;;;;4989501;28;20274;-72
2022/01/25 10:31:54;;;;;;;0.10;0.10;;;3.40;99.90;226.50;231333.00;;;;4990014;28;20325;-72
2022/01/25 10:34:27;;;;;;;0.10;0.10;;;3.20;99.90;226.50;231333.00;;;;4989764;28;20189;-72
2022/01/25 10:36:59;;;;;;;0.10;0.10;;;3.30;99.90;226.50;231333.00;;;;4989463;28;20654;-73
2022/01/25 10:39:32;;;;;;;0.10;0.10;;;3.30;99.90;226.50;231333.00;;;;4990105;28;20813;-72
2022/01/25 10:42:05;;;;;;;0.10;0.10;;;3.40;99.90;226.50;231333.00;;;;4987839;28;20288;-71
2022/01/25 10:44:48;;;;;;;0.10;0.10;;;3.30;99.90;226.50;231333.00;;;;4988306;28;20192;-72
2022/01/25 10:47:16;;;;;;;0.10;0.10;;;3.20;99.90;226.50;231333.00;;;;4987488;28;20859;-72
2022/01/25 10:49:46;;;;;;;0.10;0.10;;;3.10;99.90;226.50;231333.00;;;;4989084;28;20219;-72
2022/01/25 10:52:14;;;;;;;0.10;0.10;;;3.10;99.90;226.50;231333.00;;;;4990821;28;20262;-72
2022/01/25 10:54:43;;;;;;;0.10;0.10;;;3.10;99.90;226.50;231333.00;;;;4991414;28;20189;-72
2022/01/25 10:57:18;;;;;;;0.10;0.10;;;3.20;99.90;226.50;231333.00;;;;4991113;28;20254;-72
2022/01/25 10:59:58;;;;;;;0.10;0.10;;;3.20;99.90;226.50;231333.00;;;;4992125;28;20219;-72
2022/01/25 11:02:26;;;;;;;0.10;0.10;;;3.30;99.90;226.50;231333.00;;;;4992609;28;20262;-72
2022/01/25 11:05:06;;;;;;;0.10;0.10;;;3.30;99.90;226.50;231333.00;;;;4993328;28;20275;-72
2022/01/25 11:07:39;;;;;;;0.10;0.10;;;3.30;99.90;226.50;231333.00;;;;4991273;28;20232;-72
2022/01/25 11:10:15;;;;;;;0.10;0.10;;;3.40;99.90;226.50;231333.00;;;;4991277;28;20243;-74
2022/01/25 11:12:58;;;;;;;0.10;0.10;;;3.40;99.90;226.50;231333.00;;;;4992420;28;20251;-72
2022/01/25 11:15:35;;;;;;;0.10;0.10;;;3.30;99.90;226.50;231333.00;;;;4992257;28;20193;-72
2022/01/25 11:18:05;;;;;;;0.10;0.10;;;3.40;99.90;226.50;231333.00;;;;4990877;28;20213;-72
2022/01/25 11:20:35;;;;;;;0.10;0.10;;;3.40;99.90;226.50;231333.00;;;;4991803;28;20208;-72
2022/01/25 11:23:03;;;;;;;0.10;0.10;;;3.40;99.90;226.50;231333.00;;;;4991997;28;20231;-72
2022/01/25 11:25:38;;;;;;;0.10;0.10;;;3.30;99.90;226.50;231333.00;;;;4992372;28;20561;-72
2022/01/25 11:28:07;;;;;;;0.10;0.10;;;3.20;99.90;226.50;231333.00;;;;4990573;28;20699;-72
2022/01/25 11:30:38;;;;;;;0.10;0.10;;;3.20;99.90;226.50;231333.00;;;;4996009;28;20279;-72
2022/01/25 11:33:09;;;;;;;0.10;0.10;;;3.30;99.90;226.50;231333.00;;;;4995979;28;20738;-72
2022/01/25 11:35:39;;;;;;;0.10;0.10;;;3.30;99.90;226.50;231333.00;;;;4993655;28;20189;-72
2022/01/25 11:38:08;;;;;;;0.10;0.10;;;3.30;99.90;226.50;231333.00;;;;4994507;28;20205;-72
2022/01/25 11:40:40;;;;;;;0.10;0.10;;;3.30;99.90;226.50;231333.00;;;;5000353;28;20270;-72
2022/01/25 11:43:12;;;;;;;0.10;0.10;;;3.30;99.90;226.50;231333.00;;;;4996426;28;20607;-71
2022/01/25 11:45:45;;;;;;;0.10;0.10;;;3.30;99.90;226.50;231333.00;;;;4991159;28;20201;-72
2022/01/25 11:48:13;;;;;;;0.10;0.10;;;3.30;99.90;226.50;231333.00;;;;4991637;28;20776;-71
2022/01/25 11:50:44;;;;;;;0.10;0.10;;;3.30;99.90;226.50;231333.00;;;;4994723;28;20200;-72
2022/01/25 11:53:17;;;;;;;0.10;0.10;;;3.30;99.90;226.50;231333.00;;;;5000008;28;20706;-72
2022/01/25 11:55:52;;;;;;;0.10;0.10;;;3.30;99.90;226.50;231333.00;;;;4998170;28;20200;-72
2022/01/25 11:58:29;;;;;;;0.10;0.10;;;3.20;99.90;226.50;231333.00;;;;4991884;28;20250;-72
2022/01/25 12:01:00;;;;;;;0.10;0.10;;;3.20;99.90;226.50;231333.00;;;;4992092;28;20206;-71
2022/01/25 12:03:32;;;;;;;0.10;0.10;;;3.20;99.90;226.50;231333.00;;;;4991971;28;20196;-72
2022/01/25 12:06:06;;;;;;;0.10;0.10;;;3.20;99.90;226.50;231333.00;;;;4991807;28;20279;-72
2022/01/25 12:08:52;;;;;;;0.10;0.10;;;3.20;99.90;226.50;231333.00;;;;4993082;28;20697;-72
2022/01/25 12:11:39;;;;;;;0.10;0.10;;;3.20;99.90;226.50;231333.00;;;;4990865;28;20227;-71
2022/01/25 12:14:18;;;;;;;0.10;0.10;;;3.20;99.90;226.50;231333.00;;;;4991352;28;20204;-72
2022/01/25 12:16:49;;;;;;;0.13;0.13;;;3.20;99.90;226.50;231333.00;;;;4990335;28;20200;-72
2022/01/25 12:19:20;;;;;;;0.10;0.10;;;3.20;99.90;226.50;231333.00;;;;4991625;28;20208;-72